WCOM7: Spring River, Waco, MO

                                SHEF ID:       WCOM7     Spring R A - Waco MO
STATION TYPE: Stream Gauge
Regulating: Stage = 19.00, Flow = 17743

PRECIP STAGE RIV-FLOW BAT-LOAD
in ft cfs volt
Ccp-Rev Ccp-Rev Ccp-Rev Ccp-Rev
(America/Chicago)
04/25 00:00 0.00 4.58 2016 12.17
04/25 01:00 0.00 4.57 2008 12.37
04/25 02:00 0.00 4.57 2008 12.36
04/25 03:00 0.00 4.58 2016 12.31
04/25 04:00 0.00 4.55 1993 12.30
04/25 05:00 0.00 4.44 1910 12.17
04/25 06:00 0.00 4.53 1978 12.11
04/25 07:00 0.00 4.51 1963 12.11
04/25 08:00 0.00 4.39 1872 12.14
04/25 09:00 0.00 4.44 1910 12.37
04/25 10:00 0.00 4.40 1880 12.52
04/25 11:00 0.00 4.36 1850 13.11
04/25 12:00 0.00 4.26 1776 12.88
04/25 13:00 0.00 4.29 1798 12.80
04/25 14:00 0.00 4.24 1761 12.76
04/25 15:00 0.00 4.18 1717 12.53
04/25 16:00 0.00 4.17 1710 12.48
04/25 17:00 0.00 4.07 1638 12.46
04/25 18:00 0.00 4.09 1653 12.38
04/25 19:00 0.00 4.02 1603 12.40
04/25 20:00 0.00 3.98 1574 12.19
04/25 21:00 0.00 3.97 1567 12.15
04/25 22:00 0.00 3.93 1538 12.15
04/25 23:00 0.00 3.96 1560 12.14
Data processed at Sun 26Apr2026 04:37 GMT

NOTICE: If you are parsing this page

Please convert to using our Data API. Starting early 2026 we will be migrating to: https://water.usace.army.mil with modern pages rendered in JavaScript. When this migration completes you will no longer be able to scrape this page! CWMSDataAPI (CDA)

Timeseries IDs (TSIDs)

TSIDs used from left to right in the data table
WACO.Precip-Inc.Total.1Hour.1Hour.Ccp-Rev
WACO.Stage.Inst.1Hour.0.Ccp-Rev
WACO.Flow.Inst.1Hour.0.Ccp-Rev
WACO.Volt-Battery Load.Inst.1Hour.0.Ccp-Rev

                            

All information presented herein is the property of the government of the United States of America and may be revised or deleted at any time without prior notice. Dissemination of this information without the expressed written consent of the Public Affairs Office, Tulsa District U.S. Army Corps of Engineers is strictly prohibited. These data are gathered electronically and, as presented, have NOT undergone any form of quality control. These data are NOT guaranteed to be valid or correct.